Time;durP1;ratioP1;P1;durP2;ratioP2;P2;SDS_P1;SDS_P2;PMS_P1;PMS_P2;Temp;Humidity;BMP_temperature;BMP_pressure;BME280_temperature;BME280_humidity;BME280_pressure;Samples;Min_cycle;Max_cycle;Signal;HPM_P1;HPM_P2
2023/08/17 00:00:33;;;;;;;;;13.20;13.20;;;;;;;;5057587;28;8763;-87
2023/08/17 00:03:03;;;;;;;;;11.20;11.20;;;;;;;;5054232;28;8874;-85
2023/08/17 00:05:32;;;;;;;;;10.80;10.80;;;;;;;;5050832;28;8966;-89
2023/08/17 00:08:00;;;;;;;;;14.00;14.00;;;;;;;;5049768;28;8848;-87
2023/08/17 00:10:28;;;;;;;;;17.60;14.60;;;;;;;;5059788;28;8976;-87
2023/08/17 00:12:55;;;;;;;;;14.60;14.60;;;;;;;;5052559;28;8840;-84
2023/08/17 00:15:22;;;;;;;;;15.40;13.40;;;;;;;;5050227;28;8868;-85
2023/08/17 00:17:50;;;;;;;;;16.20;11.60;;;;;;;;5050147;28;8981;-86
2023/08/17 00:20:19;;;;;;;;;13.20;11.80;;;;;;;;5050282;28;8887;-88
2023/08/17 00:22:46;;;;;;;;;15.80;14.20;;;;;;;;5049531;28;8867;-87
2023/08/17 00:25:13;;;;;;;;;13.20;12.80;;;;;;;;5049962;28;8978;-87
2023/08/17 00:27:41;;;;;;;;;13.60;13.60;;;;;;;;5049351;28;8858;-88
2023/08/17 00:30:09;;;;;;;;;14.40;14.40;;;;;;;;5050240;28;8864;-89
2023/08/17 00:32:37;;;;;;;;;16.00;13.40;;;;;;;;5066842;28;8979;-89
2023/08/17 00:35:04;;;;;;;;;15.20;13.60;;;;;;;;5052604;28;8859;-87
2023/08/17 00:37:33;;;;;;;;;13.40;13.40;;;;;;;;5054103;28;8991;-85
2023/08/17 00:40:00;;;;;;;;;14.40;13.60;;;;;;;;5067762;28;8934;-89
2023/08/17 00:42:28;;;;;;;;;13.20;12.40;;;;;;;;5069254;28;8844;-88
2023/08/17 00:44:55;;;;;;;;;13.00;13.00;;;;;;;;5060111;28;8871;-84
2023/08/17 00:47:22;;;;;;;;;16.60;15.60;;;;;;;;5058852;28;8880;-89
2023/08/17 00:49:49;;;;;;;;;16.40;15.00;;;;;;;;5054785;28;8858;-86
2023/08/17 00:52:17;;;;;;;;;13.00;13.00;;;;;;;;5052962;28;8860;-89
2023/08/17 00:54:45;;;;;;;;;13.40;13.40;;;;;;;;5051050;28;8855;-88
2023/08/17 00:57:12;;;;;;;;;14.80;13.20;;;;;;;;5049890;28;8998;-89
2023/08/17 00:59:40;;;;;;;;;13.60;12.00;;;;;;;;5050056;28;8849;-87
2023/08/17 01:02:07;;;;;;;;;18.60;18.60;;;;;;;;5044017;28;8843;-87
2023/08/17 01:04:36;;;;;;;;;19.50;16.50;;;;;;;;5049025;28;8844;-84
2023/08/17 01:07:03;;;;;;;;;21.00;21.00;;;;;;;;5048661;28;9168;-84
2023/08/17 01:09:30;;;;;;;;;17.40;17.40;;;;;;;;5053253;28;8971;-86
2023/08/17 01:12:04;;;;;;;;;16.60;16.60;;;;;;;;5049551;28;8872;-82
2023/08/17 01:14:37;;;;;;;;;16.40;16.40;;;;;;;;5050952;28;8848;-82
2023/08/17 01:17:12;;;;;;;;;15.20;13.00;;;;;;;;5049306;28;8864;-84
2023/08/17 01:19:41;;;;;;;;;13.25;11.75;;;;;;;;5066157;28;8860;-85
2023/08/17 01:22:10;;;;;;;;;13.00;13.00;;;;;;;;5046106;28;9654;-86
2023/08/17 01:24:39;;;;;;;;;15.00;15.00;;;;;;;;5055032;28;8860;-82
2023/08/17 01:27:06;;;;;;;;;18.75;18.25;;;;;;;;5054644;28;8967;-81
2023/08/17 01:29:33;;;;;;;;;17.75;17.75;;;;;;;;5052793;28;8860;-83
2023/08/17 01:32:05;;;;;;;;;15.50;15.50;;;;;;;;5052304;28;8894;-82
2023/08/17 01:34:36;;;;;;;;;13.00;13.00;;;;;;;;5053014;28;8832;-83
2023/08/17 01:37:08;;;;;;;;;16.00;15.50;;;;;;;;5052615;28;9056;-82
2023/08/17 01:39:40;;;;;;;;;12.50;12.50;;;;;;;;5051092;28;8878;-82
2023/08/17 01:42:08;;;;;;;;;12.00;12.00;;;;;;;;5053073;28;8852;-80
2023/08/17 01:44:36;;;;;;;;;12.40;10.80;;;;;;;;5052229;28;8929;-82
2023/08/17 01:47:03;;;;;;;;;13.50;13.50;;;;;;;;5052548;28;8844;-82
2023/08/17 01:49:30;;;;;;;;;14.25;14.25;;;;;;;;5053291;28;8894;-85
2023/08/17 01:51:57;;;;;;;;;13.50;12.50;;;;;;;;5053638;28;8881;-87
2023/08/17 01:54:25;;;;;;;;;14.00;14.00;;;;;;;;5057079;28;8955;-86
2023/08/17 01:56:54;;;;;;;;;18.00;17.25;;;;;;;;5054167;28;8843;-86
2023/08/17 01:59:21;;;;;;;;;13.75;13.75;;;;;;;;5054233;28;8859;-86
2023/08/17 02:01:49;;;;;;;;;16.00;12.50;;;;;;;;5056383;28;8947;-87
2023/08/17 02:04:17;;;;;;;;;19.75;16.75;;;;;;;;5052769;28;8864;-86
2023/08/17 02:06:44;;;;;;;;;20.25;18.50;;;;;;;;5052765;28;9781;-88
2023/08/17 02:09:11;;;;;;;;;22.00;19.00;;;;;;;;5052331;28;8853;-86
2023/08/17 02:11:38;;;;;;;;;20.00;18.75;;;;;;;;5052444;28;8844;-87
2023/08/17 02:14:07;;;;;;;;;20.00;20.00;;;;;;;;5046792;28;8840;-87
2023/08/17 02:16:35;;;;;;;;;19.25;17.25;;;;;;;;5053642;28;8840;-88
2023/08/17 02:19:03;;;;;;;;;18.75;18.25;;;;;;;;5055858;28;8859;-85
2023/08/17 02:21:30;;;;;;;;;21.50;20.00;;;;;;;;5044145;28;8883;-86
2023/08/17 02:23:57;;;;;;;;;16.00;16.00;;;;;;;;5056701;28;8832;-88
2023/08/17 02:26:25;;;;;;;;;14.25;13.00;;;;;;;;5056717;28;8855;-84
2023/08/17 02:28:52;;;;;;;;;18.75;18.75;;;;;;;;5056219;28;8881;-84
2023/08/17 02:31:21;;;;;;;;;18.25;18.00;;;;;;;;5051083;28;8816;-86
2023/08/17 02:33:48;;;;;;;;;17.25;15.50;;;;;;;;5054139;28;8829;-86
2023/08/17 02:36:16;;;;;;;;;16.50;16.25;;;;;;;;5053670;28;8859;-85
2023/08/17 02:38:43;;;;;;;;;21.00;21.00;;;;;;;;5051574;28;8986;-85
2023/08/17 02:41:10;;;;;;;;;20.00;18.75;;;;;;;;5051800;28;8857;-85
2023/08/17 02:43:37;;;;;;;;;18.50;18.50;;;;;;;;5051300;28;8834;-86
2023/08/17 02:46:07;;;;;;;;;20.25;20.25;;;;;;;;5051582;28;8959;-83
2023/08/17 02:48:35;;;;;;;;;20.00;20.00;;;;;;;;5051097;28;8890;-87
2023/08/17 02:51:02;;;;;;;;;21.75;17.50;;;;;;;;5051434;28;8865;-82
2023/08/17 02:53:30;;;;;;;;;22.50;21.00;;;;;;;;5053476;28;8865;-83
2023/08/17 02:55:57;;;;;;;;;19.00;19.00;;;;;;;;5066002;28;8962;-81
2023/08/17 02:58:24;;;;;;;;;19.50;17.75;;;;;;;;5070053;28;9003;-84
2023/08/17 03:00:53;;;;;;;;;25.75;20.75;;;;;;;;5058472;28;9045;-83
2023/08/17 03:03:20;;;;;;;;;18.25;18.00;;;;;;;;5053244;28;9254;-85
2023/08/17 03:05:49;;;;;;;;;20.75;20.00;;;;;;;;5053414;28;9759;-84
2023/08/17 03:08:16;;;;;;;;;26.75;25.50;;;;;;;;5051048;28;9788;-86
2023/08/17 03:10:43;;;;;;;;;20.50;20.50;;;;;;;;5051275;28;8978;-83
2023/08/17 03:13:11;;;;;;;;;22.75;20.50;;;;;;;;5052723;28;8840;-82
2023/08/17 03:15:39;;;;;;;;;15.75;15.00;;;;;;;;5052235;28;8852;-83
2023/08/17 03:18:09;;;;;;;;;21.50;20.25;;;;;;;;5050410;28;8852;-83
2023/08/17 03:20:36;;;;;;;;;23.00;22.00;;;;;;;;5050966;28;8848;-82
2023/08/17 03:23:07;;;;;;;;;19.50;19.50;;;;;;;;5051018;28;8852;-82
2023/08/17 03:25:34;;;;;;;;;22.00;19.50;;;;;;;;5050259;28;8998;-82
2023/08/17 03:28:01;;;;;;;;;17.00;16.50;;;;;;;;5037881;28;8906;-81
2023/08/17 03:30:28;;;;;;;;;20.25;17.75;;;;;;;;5050089;28;8800;-82
2023/08/17 03:32:56;;;;;;;;;16.75;16.75;;;;;;;;5050953;28;8840;-85
2023/08/17 03:35:23;;;;;;;;;18.00;18.00;;;;;;;;5050043;28;8856;-83
2023/08/17 03:37:50;;;;;;;;;17.50;16.75;;;;;;;;5050569;28;8840;-85
2023/08/17 03:40:19;;;;;;;;;20.00;17.25;;;;;;;;5050562;28;8878;-85
2023/08/17 03:42:46;;;;;;;;;18.25;17.00;;;;;;;;5049718;28;9288;-86
2023/08/17 03:45:14;;;;;;;;;17.50;17.50;;;;;;;;5050795;28;8844;-86
2023/08/17 03:47:41;;;;;;;;;18.50;18.50;;;;;;;;5050142;28;8866;-87
2023/08/17 03:50:09;;;;;;;;;20.25;18.25;;;;;;;;5050859;28;8874;-85
2023/08/17 03:52:37;;;;;;;;;18.25;18.25;;;;;;;;5052174;28;8861;-86
2023/08/17 03:55:06;;;;;;;;;17.00;15.50;;;;;;;;5053289;28;8856;-86
2023/08/17 03:57:35;;;;;;;;;16.50;16.50;;;;;;;;5054555;28;8868;-86
2023/08/17 04:00:03;;;;;;;;;19.50;19.50;;;;;;;;5055286;28;8860;-86
2023/08/17 04:02:30;;;;;;;;;16.75;16.75;;;;;;;;5064607;28;8805;-87
2023/08/17 04:04:57;;;;;;;;;16.75;16.75;;;;;;;;5056620;28;8860;-84
2023/08/17 04:07:24;;;;;;;;;19.25;16.25;;;;;;;;5055703;28;8864;-79
2023/08/17 04:09:52;;;;;;;;;17.75;17.00;;;;;;;;5049507;28;8843;-80
2023/08/17 04:12:19;;;;;;;;;16.00;13.00;;;;;;;;5048240;28;8855;-78
2023/08/17 04:14:48;;;;;;;;;17.00;17.00;;;;;;;;5048129;28;9627;-81
2023/08/17 04:17:15;;;;;;;;;19.75;18.25;;;;;;;;5048213;28;8840;-79
2023/08/17 04:19:43;;;;;;;;;20.25;20.25;;;;;;;;5047877;28;8898;-76
2023/08/17 04:22:10;;;;;;;;;18.75;18.75;;;;;;;;5048170;28;8840;-77
2023/08/17 04:24:37;;;;;;;;;17.00;15.25;;;;;;;;5047525;28;8884;-77
2023/08/17 04:27:05;;;;;;;;;18.50;18.50;;;;;;;;5048158;28;8836;-75
2023/08/17 04:29:32;;;;;;;;;18.75;17.50;;;;;;;;5047342;28;8887;-76
2023/08/17 04:32:01;;;;;;;;;22.50;19.50;;;;;;;;5047880;28;8811;-76
2023/08/17 04:34:28;;;;;;;;;20.25;20.25;;;;;;;;5047977;28;8864;-77
2023/08/17 04:36:55;;;;;;;;;23.00;19.75;;;;;;;;5050636;28;9663;-79
2023/08/17 04:39:22;;;;;;;;;16.75;16.75;;;;;;;;5049653;28;8832;-77
2023/08/17 04:41:50;;;;;;;;;19.25;17.00;;;;;;;;5048705;28;8876;-75
2023/08/17 04:44:17;;;;;;;;;22.25;20.00;;;;;;;;5045019;28;8886;-77
2023/08/17 04:46:44;;;;;;;;;24.50;23.25;;;;;;;;5047681;28;8868;-78
2023/08/17 04:49:13;;;;;;;;;21.00;21.00;;;;;;;;5047876;28;8854;-77
2023/08/17 04:51:40;;;;;;;;;22.00;22.00;;;;;;;;5047336;28;8868;-77
2023/08/17 04:54:07;;;;;;;;;24.25;20.75;;;;;;;;5047123;28;8898;-76
2023/08/17 04:56:34;;;;;;;;;21.25;20.00;;;;;;;;5046712;28;8845;-75
2023/08/17 04:59:02;;;;;;;;;18.75;18.75;;;;;;;;5047661;28;8844;-77
2023/08/17 05:01:29;;;;;;;;;21.50;20.00;;;;;;;;5046858;28;8793;-77
2023/08/17 05:03:56;;;;;;;;;22.25;19.00;;;;;;;;5047986;28;9611;-76
2023/08/17 05:06:25;;;;;;;;;19.75;19.75;;;;;;;;5047231;28;8844;-75
2023/08/17 05:08:52;;;;;;;;;20.25;20.25;;;;;;;;5047509;28;8860;-77
2023/08/17 05:11:19;;;;;;;;;19.75;19.75;;;;;;;;5046910;28;8880;-73
2023/08/17 05:13:46;;;;;;;;;21.25;21.25;;;;;;;;5048406;28;8989;-74
2023/08/17 05:16:13;;;;;;;;;22.50;21.25;;;;;;;;5054709;28;9669;-73
2023/08/17 05:18:40;;;;;;;;;19.50;18.50;;;;;;;;5054761;28;8999;-74
2023/08/17 05:21:08;;;;;;;;;22.00;21.25;;;;;;;;5049342;28;8943;-73
2023/08/17 05:23:36;;;;;;;;;22.50;20.50;;;;;;;;5048216;28;8995;-72
2023/08/17 05:26:03;;;;;;;;;23.25;23.25;;;;;;;;5048401;28;8828;-76
2023/08/17 05:28:31;;;;;;;;;23.75;22.75;;;;;;;;5048529;28;8848;-76
2023/08/17 05:31:03;;;;;;;;;20.75;19.75;;;;;;;;5049647;28;8820;-75
2023/08/17 05:33:30;;;;;;;;;26.75;23.75;;;;;;;;5051331;28;8832;-76
2023/08/17 05:35:58;;;;;;;;;25.75;25.75;;;;;;;;5050573;28;8921;-82
2023/08/17 05:38:25;;;;;;;;;25.50;21.50;;;;;;;;5051409;28;8913;-76
2023/08/17 05:40:57;;;;;;;;;22.00;22.00;;;;;;;;5049549;28;8848;-76
2023/08/17 05:43:25;;;;;;;;;23.50;23.50;;;;;;;;5047531;28;8864;-76
2023/08/17 05:45:52;;;;;;;;;24.25;24.25;;;;;;;;5047603;28;9644;-76
2023/08/17 05:48:20;;;;;;;;;24.75;24.75;;;;;;;;5046605;28;8855;-75
2023/08/17 05:50:48;;;;;;;;;23.75;23.75;;;;;;;;5047059;28;8868;-72
2023/08/17 05:53:15;;;;;;;;;15.50;15.50;;;;;;;;5046283;28;8856;-71
2023/08/17 05:55:42;;;;;;;;;26.50;24.50;;;;;;;;5046744;28;8858;-72
2023/08/17 05:58:11;;;;;;;;;25.25;25.25;;;;;;;;5046624;28;8848;-76
2023/08/17 06:00:38;;;;;;;;;26.25;25.25;;;;;;;;5046291;28;8820;-73
2023/08/17 06:03:06;;;;;;;;;27.50;24.50;;;;;;;;5046613;28;8845;-76
2023/08/17 06:05:33;;;;;;;;;27.25;26.25;;;;;;;;5047831;28;8836;-73
2023/08/17 06:08:04;;;;;;;;;28.25;27.25;;;;;;;;5050677;28;8945;-73
2023/08/17 06:10:34;;;;;;;;;32.00;28.00;;;;;;;;5051044;28;8859;-75
2023/08/17 06:13:01;;;;;;;;;26.75;25.50;;;;;;;;5050744;28;8824;-72
2023/08/17 06:15:30;;;;;;;;;22.25;22.25;;;;;;;;5051539;28;8979;-77
2023/08/17 06:17:57;;;;;;;;;22.00;22.00;;;;;;;;5051024;28;8871;-78
2023/08/17 06:20:24;;;;;;;;;28.50;27.00;;;;;;;;5050424;28;8874;-76
2023/08/17 06:22:52;;;;;;;;;25.75;22.75;;;;;;;;5049903;28;8840;-75
2023/08/17 06:25:19;;;;;;;;;27.00;27.00;;;;;;;;5050038;28;8866;-74
2023/08/17 06:27:46;;;;;;;;;25.25;22.50;;;;;;;;5049564;28;8882;-80
2023/08/17 06:30:14;;;;;;;;;23.50;23.50;;;;;;;;5049415;28;8844;-77
2023/08/17 06:32:42;;;;;;;;;25.25;23.75;;;;;;;;5049855;28;9658;-80
2023/08/17 06:35:10;;;;;;;;;29.75;28.50;;;;;;;;5051047;28;8836;-78
2023/08/17 06:37:37;;;;;;;;;24.75;24.75;;;;;;;;5050182;28;8824;-76
2023/08/17 06:40:06;;;;;;;;;28.00;27.00;;;;;;;;5050281;28;8868;-77
2023/08/17 06:42:34;;;;;;;;;26.75;26.25;;;;;;;;5037204;28;8863;-72
2023/08/17 06:45:01;;;;;;;;;24.00;23.50;;;;;;;;5050039;28;8867;-71
2023/08/17 06:47:28;;;;;;;;;26.75;25.25;;;;;;;;5050306;28;8856;-78
2023/08/17 06:49:57;;;;;;;;;24.75;23.25;;;;;;;;5050307;28;9006;-80
2023/08/17 06:52:25;;;;;;;;;33.75;27.50;;;;;;;;5050307;28;8903;-85
2023/08/17 06:54:52;;;;;;;;;24.25;24.25;;;;;;;;5050189;28;8942;-80
2023/08/17 06:57:21;;;;;;;;;23.75;23.75;;;;;;;;5050588;28;8860;-78
2023/08/17 06:59:48;;;;;;;;;25.00;25.00;;;;;;;;5050227;28;8970;-81
2023/08/17 07:02:15;;;;;;;;;26.25;26.00;;;;;;;;5052012;28;9583;-81
2023/08/17 07:04:43;;;;;;;;;22.75;22.75;;;;;;;;5053130;28;8875;-79
2023/08/17 07:07:11;;;;;;;;;27.50;25.25;;;;;;;;5054755;28;8836;-82
2023/08/17 07:09:39;;;;;;;;;24.50;17.75;;;;;;;;5054717;28;8844;-78
2023/08/17 07:12:06;;;;;;;;;23.50;23.50;;;;;;;;5054154;28;8852;-78
2023/08/17 07:14:34;;;;;;;;;24.50;23.50;;;;;;;;5052163;28;8828;-76
2023/08/17 07:17:01;;;;;;;;;29.25;26.25;;;;;;;;5049413;28;8863;-75
2023/08/17 07:19:29;;;;;;;;;24.75;24.75;;;;;;;;5048509;28;8853;-73
2023/08/17 07:21:56;;;;;;;;;23.80;23.80;;;;;;;;5049530;28;8848;-76
2023/08/17 07:24:24;;;;;;;;;26.75;26.75;;;;;;;;5048918;28;8978;-77
2023/08/17 07:26:51;;;;;;;;;31.75;29.25;;;;;;;;5049116;28;8955;-76
2023/08/17 07:29:18;;;;;;;;;29.25;28.25;;;;;;;;5048907;28;8898;-77
2023/08/17 07:31:46;;;;;;;;;23.00;23.00;;;;;;;;5048175;28;8840;-79
2023/08/17 07:34:13;;;;;;;;;25.25;23.25;;;;;;;;5049096;28;8933;-79
2023/08/17 07:36:40;;;;;;;;;28.25;28.25;;;;;;;;5049308;28;8840;-79
2023/08/17 07:39:08;;;;;;;;;26.00;24.40;;;;;;;;5048908;28;8876;-75
2023/08/17 07:41:37;;;;;;;;;29.75;29.00;;;;;;;;5049216;28;8846;-75
2023/08/17 07:44:07;;;;;;;;;23.40;22.20;;;;;;;;5050572;28;8852;-74
2023/08/17 07:46:34;;;;;;;;;27.80;24.80;;;;;;;;5049772;28;8824;-73
2023/08/17 07:49:01;;;;;;;;;25.20;23.80;;;;;;;;5050346;28;8840;-77
2023/08/17 07:51:29;;;;;;;;;26.80;24.00;;;;;;;;5049696;28;8852;-72
2023/08/17 07:53:57;;;;;;;;;21.40;21.40;;;;;;;;5048422;28;8974;-73
2023/08/17 07:56:24;;;;;;;;;25.40;24.60;;;;;;;;5047856;28;9623;-77
2023/08/17 07:58:54;;;;;;;;;27.00;25.20;;;;;;;;5048097;28;9627;-76
2023/08/17 08:01:21;;;;;;;;;27.20;25.40;;;;;;;;5047085;28;8805;-75
2023/08/17 08:03:48;;;;;;;;;28.60;27.00;;;;;;;;5049108;28;8863;-75
2023/08/17 08:06:15;;;;;;;;;29.80;28.80;;;;;;;;5047971;28;8872;-72
2023/08/17 08:08:42;;;;;;;;;30.80;28.40;;;;;;;;5048881;28;8864;-75
2023/08/17 08:11:10;;;;;;;;;31.00;29.20;;;;;;;;5048366;28;9627;-76
2023/08/17 08:13:38;;;;;;;;;28.20;26.20;;;;;;;;5049163;28;8875;-80
2023/08/17 08:16:07;;;;;;;;;33.60;30.40;;;;;;;;5047889;28;8840;-85
2023/08/17 08:18:37;;;;;;;;;30.40;27.60;;;;;;;;5049126;28;8843;-83
2023/08/17 08:21:05;;;;;;;;;30.20;28.80;;;;;;;;5048404;28;8840;-80
2023/08/17 08:23:32;;;;;;;;;32.60;30.00;;;;;;;;5048687;28;8868;-79
2023/08/17 08:25:59;;;;;;;;;31.00;29.40;;;;;;;;5048623;28;8856;-78
2023/08/17 08:28:26;;;;;;;;;31.60;29.20;;;;;;;;5048811;28;8833;-81
2023/08/17 08:30:54;;;;;;;;;28.00;27.00;;;;;;;;5047753;28;8804;-75
2023/08/17 08:33:22;;;;;;;;;32.00;29.00;;;;;;;;5048955;28;8852;-80
2023/08/17 08:35:49;;;;;;;;;24.60;24.60;;;;;;;;5048347;28;8836;-81
2023/08/17 08:38:17;;;;;;;;;32.40;29.00;;;;;;;;5050805;28;8832;-80
2023/08/17 08:40:45;;;;;;;;;32.40;30.20;;;;;;;;5051127;28;8909;-78
2023/08/17 08:43:12;;;;;;;;;27.00;27.00;;;;;;;;5051741;28;8836;-70
2023/08/17 08:45:44;;;;;;;;;29.40;28.00;;;;;;;;5051693;28;8921;-77
2023/08/17 08:48:12;;;;;;;;;33.60;30.00;;;;;;;;5051901;28;8840;-79
2023/08/17 08:50:42;;;;;;;;;27.80;27.60;;;;;;;;5049983;28;8848;-76
2023/08/17 08:53:14;;;;;;;;;34.80;30.80;;;;;;;;5047512;28;8884;-76
2023/08/17 08:55:48;;;;;;;;;32.40;28.00;;;;;;;;5038571;28;8978;-73
2023/08/17 08:58:17;;;;;;;;;27.60;27.60;;;;;;;;5047027;28;8841;-71
2023/08/17 09:00:48;;;;;;;;;31.80;29.40;;;;;;;;5047013;28;8783;-72
2023/08/17 09:03:17;;;;;;;;;27.00;25.60;;;;;;;;5043060;28;8824;-73
2023/08/17 09:05:49;;;;;;;;;24.60;22.80;;;;;;;;5047429;28;9659;-76
2023/08/17 09:08:16;;;;;;;;;26.40;26.40;;;;;;;;5047775;28;8852;-72
2023/08/17 09:10:44;;;;;;;;;29.00;26.20;;;;;;;;5048743;28;8844;-72
2023/08/17 09:13:11;;;;;;;;;25.60;25.20;;;;;;;;5052102;28;8858;-81
2023/08/17 09:15:38;;;;;;;;;27.00;26.80;;;;;;;;5051573;28;8836;-79
2023/08/17 09:18:07;;;;;;;;;25.40;25.40;;;;;;;;5048320;28;8832;-79
2023/08/17 09:20:39;;;;;;;;;30.80;29.00;;;;;;;;5048911;28;8901;-71
2023/08/17 09:23:12;;;;;;;;;31.00;28.00;;;;;;;;5050219;28;8836;-80
2023/08/17 09:25:41;;;;;;;;;29.00;26.60;;;;;;;;5049375;28;9657;-77
2023/08/17 09:28:09;;;;;;;;;22.40;21.20;;;;;;;;5056288;28;8844;-83
2023/08/17 09:30:52;;;;;;;;;29.40;26.20;;;;;;;;5046594;28;8769;-82
2023/08/17 09:33:19;;;;;;;;;29.20;26.00;;;;;;;;5048108;28;8891;-84
2023/08/17 09:35:46;;;;;;;;;26.40;23.20;;;;;;;;5048113;28;8836;-83
2023/08/17 09:38:15;;;;;;;;;22.20;22.20;;;;;;;;5047535;28;8836;-82
2023/08/17 09:40:42;;;;;;;;;19.80;19.00;;;;;;;;5049013;28;8946;-75
2023/08/17 09:43:10;;;;;;;;;24.40;24.40;;;;;;;;5051688;28;8848;-77
2023/08/17 09:45:38;;;;;;;;;23.40;23.40;;;;;;;;5052654;28;8844;-87
2023/08/17 09:48:08;;;;;;;;;22.80;21.00;;;;;;;;5054918;28;8857;-73
2023/08/17 09:50:35;;;;;;;;;21.40;18.20;;;;;;;;5054821;28;8860;-72
2023/08/17 09:53:03;;;;;;;;;20.80;20.40;;;;;;;;5053438;28;8844;-84
2023/08/17 09:55:33;;;;;;;;;20.60;20.60;;;;;;;;5052716;28;8876;-83
2023/08/17 09:58:01;;;;;;;;;25.00;23.60;;;;;;;;5052956;28;8828;-80
2023/08/17 10:00:29;;;;;;;;;19.40;19.40;;;;;;;;5051834;28;8780;-83
2023/08/17 10:02:59;;;;;;;;;18.80;18.20;;;;;;;;5051864;28;8999;-77
2023/08/17 10:05:29;;;;;;;;;20.60;19.80;;;;;;;;5051116;28;8878;-79
2023/08/17 10:07:58;;;;;;;;;24.40;22.00;;;;;;;;5051107;28;8852;-77
2023/08/17 10:10:27;;;;;;;;;21.00;19.40;;;;;;;;5051994;28;8852;-85
2023/08/17 10:13:04;;;;;;;;;22.20;21.80;;;;;;;;5053440;28;8869;-89
2023/08/17 10:15:33;;;;;;;;;20.60;20.60;;;;;;;;5055440;28;8902;-88
2023/08/17 10:18:06;;;;;;;;;22.40;22.40;;;;;;;;5055618;28;8950;-85
2023/08/17 10:20:35;;;;;;;;;19.40;18.20;;;;;;;;5055934;28;8878;-78
2023/08/17 10:23:07;;;;;;;;;18.80;18.80;;;;;;;;5054287;28;8848;-86
2023/08/17 10:25:35;;;;;;;;;24.00;24.00;;;;;;;;5053701;28;8929;-76
2023/08/17 10:28:05;;;;;;;;;21.60;21.60;;;;;;;;5052946;28;8902;-81
2023/08/17 10:30:35;;;;;;;;;22.20;21.40;;;;;;;;5054039;28;8806;-84
2023/08/17 10:33:03;;;;;;;;;17.20;17.20;;;;;;;;5043685;28;8878;-80
2023/08/17 10:35:31;;;;;;;;;19.20;18.40;;;;;;;;5053013;28;8837;-80
2023/08/17 10:37:59;;;;;;;;;20.00;17.60;;;;;;;;5050970;28;8840;-76
2023/08/17 10:40:28;;;;;;;;;21.00;21.00;;;;;;;;5050003;28;8852;-79
2023/08/17 10:42:56;;;;;;;;;24.20;20.20;;;;;;;;5050483;28;8896;-79
2023/08/17 10:45:34;;;;;;;;;16.60;16.60;;;;;;;;5049528;28;8856;-78
2023/08/17 10:48:17;;;;;;;;;18.20;17.60;;;;;;;;5050453;28;8859;-75
2023/08/17 10:51:03;;;;;;;;;20.00;19.40;;;;;;;;5033702;28;8863;-70
2023/08/17 10:53:38;;;;;;;;;17.40;17.20;;;;;;;;5048984;28;8941;-74
2023/08/17 10:56:08;;;;;;;;;21.40;19.60;;;;;;;;5051407;28;8939;-76
2023/08/17 10:58:35;;;;;;;;;15.60;15.60;;;;;;;;5050645;28;8840;-71
2023/08/17 11:01:04;;;;;;;;;15.40;14.80;;;;;;;;5050774;28;8780;-75
2023/08/17 11:03:33;;;;;;;;;21.40;19.20;;;;;;;;5049920;28;8832;-72
2023/08/17 11:06:16;;;;;;;;;16.80;16.80;;;;;;;;5050147;28;8994;-86
2023/08/17 11:08:54;;;;;;;;;22.20;20.80;;;;;;;;5041217;28;8863;-80
2023/08/17 11:11:22;;;;;;;;;16.20;14.80;;;;;;;;5050739;28;8860;-80
2023/08/17 11:13:49;;;;;;;;;23.20;23.20;;;;;;;;5050827;28;8855;-79
2023/08/17 11:16:20;;;;;;;;;17.40;16.40;;;;;;;;5050195;28;8848;-83
2023/08/17 11:18:48;;;;;;;;;23.20;20.00;;;;;;;;5049942;28;8844;-79
2023/08/17 11:21:16;;;;;;;;;17.40;17.40;;;;;;;;5049642;28;8945;-77
2023/08/17 11:23:43;;;;;;;;;19.40;18.20;;;;;;;;5050884;28;8832;-88
2023/08/17 11:26:11;;;;;;;;;20.60;19.40;;;;;;;;5049932;28;8910;-81
2023/08/17 11:28:40;;;;;;;;;15.60;15.60;;;;;;;;5050589;28;8840;-84
2023/08/17 11:31:08;;;;;;;;;18.20;16.20;;;;;;;;5050205;28;8756;-86
2023/08/17 11:33:38;;;;;;;;;17.20;16.00;;;;;;;;5050591;28;9365;-87
2023/08/17 11:36:07;;;;;;;;;19.20;18.20;;;;;;;;5050775;28;8844;-89
2023/08/17 11:38:35;;;;;;;;;14.20;14.20;;;;;;;;5050774;28;8836;-87
2023/08/17 11:41:03;;;;;;;;;18.40;17.40;;;;;;;;5051151;28;8975;-88
2023/08/17 11:43:32;;;;;;;;;18.40;18.40;;;;;;;;5050667;28;8884;-89
2023/08/17 11:46:00;;;;;;;;;17.60;16.60;;;;;;;;5052303;28;8832;-88
2023/08/17 11:48:27;;;;;;;;;17.20;16.60;;;;;;;;5056049;28;8919;-88
2023/08/17 11:50:56;;;;;;;;;15.20;15.20;;;;;;;;5058743;28;8871;-89
2023/08/17 11:53:23;;;;;;;;;15.60;15.60;;;;;;;;5057586;28;8848;-85
2023/08/17 11:55:51;;;;;;;;;16.20;16.20;;;;;;;;5056547;28;8876;-86
2023/08/17 11:58:18;;;;;;;;;22.20;20.60;;;;;;;;5055143;28;8966;-83
2023/08/17 12:00:45;;;;;;;;;13.80;13.80;;;;;;;;5051083;28;8797;-77
2023/08/17 12:03:16;;;;;;;;;16.80;16.80;;;;;;;;5049425;28;8850;-84
2023/08/17 12:05:44;;;;;;;;;17.40;17.20;;;;;;;;5049721;28;8863;-87
2023/08/17 12:08:15;;;;;;;;;16.80;16.80;;;;;;;;5049587;28;8929;-79
2023/08/17 12:10:42;;;;;;;;;15.60;14.00;;;;;;;;5049341;28;8856;-79
2023/08/17 12:13:14;;;;;;;;;14.00;13.40;;;;;;;;5049397;28;8848;-81
2023/08/17 12:15:44;;;;;;;;;13.00;12.40;;;;;;;;5049811;28;8844;-78
2023/08/17 12:18:12;;;;;;;;;17.00;15.40;;;;;;;;5049989;28;8844;-85
2023/08/17 12:20:39;;;;;;;;;13.60;13.60;;;;;;;;5048649;28;8939;-83
2023/08/17 12:23:07;;;;;;;;;12.20;12.20;;;;;;;;5049186;28;8859;-87
2023/08/17 12:25:35;;;;;;;;;11.40;11.40;;;;;;;;5049385;28;8859;-82
2023/08/17 12:28:03;;;;;;;;;10.20;10.20;;;;;;;;5049976;28;8859;-76
2023/08/17 12:30:32;;;;;;;;;18.00;17.00;;;;;;;;5047337;28;8790;-78
2023/08/17 12:32:59;;;;;;;;;16.00;14.00;;;;;;;;5049146;28;8872;-77
2023/08/17 12:35:27;;;;;;;;;13.80;13.20;;;;;;;;5048523;28;8824;-79
2023/08/17 12:37:54;;;;;;;;;12.20;11.40;;;;;;;;5048235;28;8859;-77
2023/08/17 12:40:22;;;;;;;;;15.40;14.00;;;;;;;;5047370;28;8832;-79
2023/08/17 12:42:51;;;;;;;;;16.00;16.00;;;;;;;;5047608;28;8852;-80
2023/08/17 12:45:18;;;;;;;;;13.80;11.80;;;;;;;;5038904;28;8963;-77
2023/08/17 12:47:45;;;;;;;;;11.40;9.60;;;;;;;;5047398;28;9607;-78
2023/08/17 12:50:13;;;;;;;;;12.20;11.60;;;;;;;;5049438;28;9031;-78
2023/08/17 12:52:40;;;;;;;;;11.40;11.40;;;;;;;;5058046;28;8909;-77
2023/08/17 12:55:08;;;;;;;;;14.40;13.20;;;;;;;;5047885;28;9626;-77
2023/08/17 12:57:35;;;;;;;;;15.60;13.20;;;;;;;;5047888;28;8944;-78
2023/08/17 13:00:04;;;;;;;;;14.60;14.60;;;;;;;;5047723;28;8875;-77
2023/08/17 13:02:31;;;;;;;;;12.20;10.20;;;;;;;;5045293;28;8815;-76
2023/08/17 13:04:59;;;;;;;;;12.20;12.20;;;;;;;;5047187;28;8860;-79
2023/08/17 13:07:26;;;;;;;;;14.20;14.20;;;;;;;;5047819;28;8852;-76
2023/08/17 13:09:53;;;;;;;;;11.40;11.00;;;;;;;;5046608;28;8902;-80
2023/08/17 13:12:20;;;;;;;;;15.80;12.60;;;;;;;;5050506;28;8870;-81
2023/08/17 13:14:48;;;;;;;;;12.80;12.80;;;;;;;;5050347;28;8918;-85
2023/08/17 13:17:17;;;;;;;;;11.80;9.20;;;;;;;;5050210;28;8873;-86
2023/08/17 13:19:44;;;;;;;;;13.00;12.40;;;;;;;;5052022;28;8836;-89
2023/08/17 13:22:11;;;;;;;;;14.60;12.60;;;;;;;;5051741;28;8852;-81
2023/08/17 13:24:39;;;;;;;;;12.60;12.60;;;;;;;;5052160;28;9734;-88
2023/08/17 13:27:10;;;;;;;;;14.20;12.00;;;;;;;;5053420;28;8866;-85
2023/08/17 13:29:38;;;;;;;;;13.40;11.00;;;;;;;;5053043;28;8945;-80
2023/08/17 13:32:06;;;;;;;;;11.60;9.80;;;;;;;;5051414;28;8785;-88
2023/08/17 13:34:34;;;;;;;;;12.00;10.40;;;;;;;;5049338;28;8987;-85
2023/08/17 13:37:02;;;;;;;;;7.00;7.00;;;;;;;;5048600;28;9304;-87
2023/08/17 13:39:30;;;;;;;;;11.20;11.20;;;;;;;;5048360;28;8929;-83
2023/08/17 13:41:57;;;;;;;;;12.80;11.60;;;;;;;;5048111;28;8863;-80
2023/08/17 13:44:24;;;;;;;;;12.80;10.40;;;;;;;;5048077;28;8882;-89
2023/08/17 13:46:51;;;;;;;;;14.60;12.60;;;;;;;;5047570;28;8979;-82
2023/08/17 13:49:18;;;;;;;;;11.20;11.20;;;;;;;;5050532;28;8840;-82
2023/08/17 13:51:47;;;;;;;;;11.40;10.80;;;;;;;;5049732;28;8845;-83
2023/08/17 13:54:17;;;;;;;;;14.60;11.00;;;;;;;;5049916;28;8848;-80
2023/08/17 13:56:44;;;;;;;;;9.80;9.60;;;;;;;;5050719;28;8836;-82
2023/08/17 13:59:12;;;;;;;;;15.00;12.80;;;;;;;;5048888;28;8844;-86
2023/08/17 14:01:43;;;;;;;;;12.20;12.20;;;;;;;;5048080;28;9584;-84
2023/08/17 14:04:14;;;;;;;;;13.80;12.60;;;;;;;;5060213;28;8964;-86
2023/08/17 14:06:42;;;;;;;;;15.80;13.00;;;;;;;;5050917;28;8836;-86
2023/08/17 14:09:11;;;;;;;;;11.60;11.60;;;;;;;;5048449;28;8975;-86
2023/08/17 14:11:38;;;;;;;;;15.40;10.00;;;;;;;;5047645;28;8991;-85
2023/08/17 14:14:05;;;;;;;;;11.20;10.00;;;;;;;;5047808;28;8856;-89
2023/08/17 14:16:33;;;;;;;;;10.80;10.80;;;;;;;;5047337;28;8848;-77
2023/08/17 14:19:00;;;;;;;;;11.00;10.80;;;;;;;;5047712;28;9651;-86
2023/08/17 14:21:27;;;;;;;;;16.20;14.80;;;;;;;;5046971;28;8986;-81
2023/08/17 14:23:54;;;;;;;;;10.80;10.80;;;;;;;;5047551;28;8872;-80
2023/08/17 14:26:23;;;;;;;;;11.60;11.00;;;;;;;;5047623;28;9668;-83
2023/08/17 14:28:50;;;;;;;;;11.00;10.40;;;;;;;;5050694;28;8833;-77
2023/08/17 14:31:18;;;;;;;;;10.00;9.80;;;;;;;;5038091;28;8932;-76
2023/08/17 14:33:47;;;;;;;;;9.60;9.40;;;;;;;;5050809;28;8921;-79
2023/08/17 14:36:17;;;;;;;;;11.60;10.00;;;;;;;;5039852;28;8898;-88